Allamuchy Township, New Jersey
Current Conditions -  °F | °C
As of 9:53 AM on Wednesday 22 Oct 2014 (Local Time) from KSMQ Reporting Station
Overcast Overcast  
Wind Chill: 13°   Ceiling: 1700
Heat Index: 13°   Visibility: 10mi
Dew Point: 10°   Wind: 8mph
Humidity: 83%   Direction: 10°N
Pressure: 29.91"   Gusts: 18mph
Location:  40.8661°N, 74.8361°W
Report Text: KSMQ 221353Z AUTO 01007G16KT 300V030 10SM OVC017 13/10 A2991 RMK AO2 RAB1259E41 SLP129 P0000 T01280100
Loading
Personal Weather Stations






























Interactive Weather Map
Tropical Storm Tracking
New forecast layout! Learn more

10-Day Weather Forecast

Advertisements
Track Severe Weather on mobile